TimeEST,TemperatureF,Dew PointF,Humidity,Sea Level PressureIn,VisibilityMPH,Wind Direction,Wind SpeedMPH,Gust SpeedMPH,PrecipitationIn,Events,Conditions,WindDirDegrees,DateUTC
12:54 AM,3.0,-0.0,87,30.34,-9999.0,North,-9999.0,-,N/A,,Unknown,0,2013-02-11 05:54:00
1:54 AM,3.0,-0.0,87,30.30,-9999.0,North,-9999.0,-,N/A,,Unknown,0,2013-02-11 06:54:00
2:54 AM,3.0,-0.9,84,30.27,-9999.0,North,-9999.0,-,N/A,,Unknown,0,2013-02-11 07:54:00
3:54 AM,3.9,-0.0,84,30.24,-9999.0,North,-9999.0,-,N/A,,Unknown,0,2013-02-11 08:54:00
4:54 AM,5.0,1.0,84,30.20,-9999.0,North,-9999.0,-,N/A,,Unknown,0,2013-02-11 09:54:00
5:54 AM,6.1,1.0,80,30.17,-9999.0,North,-9999.0,-,N/A,,Unknown,0,2013-02-11 10:54:00
6:54 AM,8.1,3.0,80,30.14,-9999.0,North,-9999.0,-,N/A,,Unknown,0,2013-02-11 11:54:00
7:54 AM,10.0,5.0,80,30.12,-9999.0,North,-9999.0,-,N/A,,Unknown,0,2013-02-11 12:54:00
8:54 AM,14.0,6.1,71,30.07,-9999.0,North,-9999.0,-,N/A,,Unknown,0,2013-02-11 13:54:00
9:54 AM,16.0,9.0,74,30.03,-9999.0,North,-9999.0,-,0.01,,Unknown,0,2013-02-11 14:54:00
10:54 AM,21.0,18.0,88,29.97,-9999.0,North,-9999.0,-,0.03,,Unknown,0,2013-02-11 15:54:00
11:54 AM,26.1,24.1,92,29.91,-9999.0,North,-9999.0,-,0.03,,Unknown,0,2013-02-11 16:54:00
12:54 PM,28.0,25.0,88,29.87,-9999.0,North,-9999.0,-,0.02,,Unknown,0,2013-02-11 17:54:00
1:54 PM,28.9,26.1,89,29.83,-9999.0,North,-9999.0,-,0.01,,Unknown,0,2013-02-11 18:54:00
2:54 PM,30.0,27.0,88,29.79,-9999.0,North,-9999.0,-,N/A,,Unknown,0,2013-02-11 19:54:00
3:54 PM,30.0,28.0,92,29.74,-9999.0,North,-9999.0,-,N/A,,Unknown,0,2013-02-11 20:54:00
4:54 PM,30.9,28.0,89,29.72,-9999.0,North,-9999.0,-,N/A,,Unknown,0,2013-02-11 21:54:00
5:54 PM,30.9,28.0,89,29.69,-9999.0,North,-9999.0,-,N/A,,Unknown,0,2013-02-11 22:54:00
6:54 PM,32.0,28.9,88,29.67,-9999.0,North,-9999.0,-,N/A,,Unknown,0,2013-02-11 23:54:00
7:54 PM,30.9,28.9,92,29.65,-9999.0,North,-9999.0,-,N/A,,Unknown,0,2013-02-12 00:54:00
8:54 PM,30.9,28.9,92,29.64,-9999.0,North,-9999.0,-,N/A,,Unknown,0,2013-02-12 01:54:00
9:54 PM,30.9,30.0,96,29.63,-9999.0,North,-9999.0,-,0.02,,Unknown,0,2013-02-12 02:54:00
10:54 PM,32.0,30.9,96,29.59,-9999.0,North,-9999.0,-,0.02,,Unknown,0,2013-02-12 03:54:00
11:54 PM,32.0,30.9,96,29.59,-9999.0,North,-9999.0,-,N/A,,Unknown,0,2013-02-12 04:54:00